createdAt,value
2019-05-20T00:00:38.797Z,21.50
2019-05-20T00:03:07.361Z,21.40
2019-05-20T00:05:36.116Z,21.40
2019-05-20T00:08:06.293Z,21.40
2019-05-20T00:10:34.861Z,21.40
2019-05-20T00:13:03.461Z,21.40
2019-05-20T00:15:32.078Z,21.30
2019-05-20T00:18:00.673Z,21.40
2019-05-20T00:20:29.269Z,21.40
2019-05-20T00:22:58.325Z,21.40
2019-05-20T00:25:26.925Z,21.40
2019-05-20T00:27:55.520Z,21.40
2019-05-20T00:30:24.122Z,21.40
2019-05-20T00:32:52.693Z,21.30
2019-05-20T00:35:21.353Z,21.40
2019-05-20T00:37:49.932Z,21.30
2019-05-20T00:40:18.513Z,21.30
2019-05-20T00:42:47.109Z,21.30
2019-05-20T00:45:15.679Z,21.30
2019-05-20T00:47:44.255Z,21.30
2019-05-20T00:50:12.835Z,21.30
2019-05-20T00:52:41.410Z,21.30
2019-05-20T00:55:33.390Z,21.30
2019-05-20T00:58:21.366Z,21.30
2019-05-20T01:00:50.108Z,21.30
2019-05-20T01:03:18.797Z,21.30
2019-05-20T01:05:47.448Z,21.30
2019-05-20T01:08:16.025Z,21.30
2019-05-20T01:10:44.594Z,21.30
2019-05-20T01:13:13.547Z,21.30
2019-05-20T01:15:42.120Z,21.30
2019-05-20T01:18:10.677Z,21.30
2019-05-20T01:20:39.236Z,21.30
2019-05-20T01:23:27.165Z,21.30
2019-05-20T01:26:15.048Z,21.30
2019-05-20T01:28:43.635Z,21.20
2019-05-20T01:31:12.196Z,21.30
2019-05-20T01:33:40.772Z,21.20
2019-05-20T01:36:09.340Z,21.20
2019-05-20T01:38:37.911Z,21.30
2019-05-20T01:41:06.467Z,21.30
2019-05-20T01:43:35.039Z,21.30
2019-05-20T01:46:03.605Z,21.30
2019-05-20T01:48:32.160Z,21.20
2019-05-20T01:51:00.758Z,21.30
2019-05-20T01:53:29.379Z,21.30
2019-05-20T01:55:57.962Z,21.30
2019-05-20T01:58:26.529Z,21.30
2019-05-20T02:00:55.131Z,21.20
2019-05-20T02:03:31.685Z,21.20
2019-05-20T02:05:54.108Z,21.20
2019-05-20T02:08:22.697Z,21.20
2019-05-20T02:10:51.260Z,21.20
2019-05-20T02:13:19.816Z,21.20
2019-05-20T02:15:58.147Z,21.20
2019-05-20T02:18:46.125Z,21.20
2019-05-20T02:21:15.256Z,21.20
2019-05-20T02:23:43.842Z,21.20
2019-05-20T02:26:12.405Z,21.20
2019-05-20T02:28:40.981Z,21.20
2019-05-20T02:31:09.533Z,21.20
2019-05-20T02:33:50.744Z,21.10
2019-05-20T02:36:08.673Z,21.20
2019-05-20T02:38:37.267Z,21.20
2019-05-20T02:41:05.857Z,21.10
2019-05-20T02:43:34.442Z,21.20
2019-05-20T02:46:03.027Z,21.20
2019-05-20T02:48:31.600Z,21.20
2019-05-20T02:51:00.185Z,21.20
2019-05-20T02:53:28.749Z,21.20
2019-05-20T02:55:57.350Z,21.10
2019-05-20T02:58:26.185Z,21.10
2019-05-20T03:00:54.816Z,21.10
2019-05-20T03:03:23.390Z,21.20
2019-05-20T03:05:52.645Z,21.20
2019-05-20T03:08:21.336Z,21.20
2019-05-20T03:10:49.910Z,21.10
2019-05-20T03:13:18.536Z,21.20
2019-05-20T03:15:47.236Z,21.20
2019-05-20T03:18:15.822Z,21.10
2019-05-20T03:20:44.402Z,21.10
2019-05-20T03:23:12.980Z,21.10
2019-05-20T03:25:41.560Z,21.10
2019-05-20T03:28:10.114Z,21.10
2019-05-20T03:30:38.728Z,21.20
2019-05-20T03:33:07.322Z,21.20
2019-05-20T03:35:35.927Z,21.10
2019-05-20T03:38:04.526Z,21.10
2019-05-20T03:40:33.119Z,21.10
2019-05-20T03:43:01.741Z,21.10
2019-05-20T03:45:30.316Z,21.10
2019-05-20T03:47:58.889Z,21.10
2019-05-20T03:50:29.014Z,21.10
2019-05-20T03:52:57.587Z,21.10
2019-05-20T03:55:26.156Z,21.10
2019-05-20T03:57:54.714Z,21.10
2019-05-20T04:00:45.748Z,21.10
2019-05-20T04:03:14.679Z,21.10
2019-05-20T04:05:43.342Z,21.10
2019-05-20T04:08:11.994Z,21.10
2019-05-20T04:10:59.882Z,21.10
2019-05-20T04:13:28.943Z,21.10
2019-05-20T04:15:57.682Z,21.10
2019-05-20T04:18:26.266Z,21.10
2019-05-20T04:20:54.825Z,21.10
2019-05-20T04:23:23.475Z,21.10
2019-05-20T04:25:52.057Z,21.10
2019-05-20T04:28:20.693Z,21.10
2019-05-20T04:30:49.257Z,21.10
2019-05-20T04:33:17.810Z,21.10
2019-05-20T04:35:49.677Z,21.10
2019-05-20T04:38:16.949Z,21.10
2019-05-20T04:40:45.546Z,21.10
2019-05-20T04:43:14.129Z,21.10
2019-05-20T04:45:42.722Z,21.10
2019-05-20T04:48:13.895Z,21.10
2019-05-20T04:50:41.624Z,21.10
2019-05-20T04:53:10.320Z,21.10
2019-05-20T04:55:58.208Z,21.10
2019-05-20T04:58:26.818Z,21.10
2019-05-20T05:00:56.724Z,21.10
2019-05-20T05:03:25.344Z,21.10
2019-05-20T05:05:53.971Z,21.10
2019-05-20T05:08:24.603Z,21.10
2019-05-20T05:10:53.295Z,21.10
2019-05-20T05:13:22.595Z,21.10
2019-05-20T05:15:51.171Z,21.10
2019-05-20T05:18:19.801Z,21.10
2019-05-20T05:20:48.436Z,21.10
2019-05-20T05:23:17.033Z,21.10
2019-05-20T05:26:05.265Z,21.10
2019-05-20T05:28:34.150Z,21.10
2019-05-20T05:31:02.732Z,21.10
2019-05-20T05:33:31.295Z,21.10
2019-05-20T05:36:00.208Z,21.10
2019-05-20T05:38:28.777Z,21.10
2019-05-20T05:40:57.357Z,21.10
2019-05-20T05:43:25.925Z,21.10
2019-05-20T05:45:54.811Z,21.10
2019-05-20T05:48:23.432Z,21.10
2019-05-20T05:50:52.298Z,21.10
2019-05-20T05:53:20.879Z,21.10
2019-05-20T05:55:49.500Z,21.10
2019-05-20T05:58:18.067Z,21.10
2019-05-20T06:00:46.718Z,21.10
2019-05-20T06:03:15.349Z,21.10
2019-05-20T06:05:43.922Z,21.10
2019-05-20T06:08:12.609Z,21.00
2019-05-20T06:10:41.180Z,21.00
2019-05-20T06:13:09.759Z,21.10
2019-05-20T06:15:38.376Z,21.00
2019-05-20T06:18:06.941Z,21.10
2019-05-20T06:20:35.592Z,21.00
2019-05-20T06:23:04.159Z,21.10
2019-05-20T06:25:32.758Z,21.00
2019-05-20T06:28:01.349Z,21.00
2019-05-20T06:30:41.377Z,21.00
2019-05-20T06:33:09.957Z,21.10
2019-05-20T06:35:58.105Z,21.00
2019-05-20T06:38:42.466Z,21.10
2019-05-20T06:41:11.119Z,21.00
2019-05-20T06:43:59.025Z,21.10
2019-05-20T06:46:27.610Z,21.10
2019-05-20T06:48:56.256Z,21.10
2019-05-20T06:51:25.181Z,21.10
2019-05-20T06:53:53.788Z,21.10
2019-05-20T06:56:22.368Z,21.10
2019-05-20T06:58:51.047Z,21.10
2019-05-20T07:01:19.761Z,21.10
2019-05-20T07:03:48.404Z,21.10
2019-05-20T07:06:17.287Z,21.10
2019-05-20T07:08:45.900Z,21.20
2019-05-20T07:11:14.477Z,21.30
2019-05-20T07:13:43.951Z,21.20
2019-05-20T07:16:12.665Z,21.20
2019-05-20T07:18:41.294Z,21.20
2019-05-20T07:21:09.873Z,21.20
2019-05-20T07:23:38.453Z,21.20
2019-05-20T07:26:07.065Z,21.20
2019-05-20T07:28:35.658Z,21.20
2019-05-20T07:31:04.297Z,21.20
2019-05-20T07:33:32.890Z,21.20
2019-05-20T07:36:01.525Z,21.30
2019-05-20T07:38:30.110Z,21.30
2019-05-20T07:40:58.715Z,21.40
2019-05-20T07:43:27.294Z,21.50
2019-05-20T07:45:55.880Z,21.70
2019-05-20T07:48:24.497Z,21.80
2019-05-20T07:50:53.127Z,21.90
2019-05-20T07:53:21.752Z,22.00
2019-05-20T07:55:58.544Z,22.00
2019-05-20T07:58:27.304Z,22.00
2019-05-20T08:00:55.881Z,22.00
2019-05-20T08:03:24.453Z,22.00
2019-05-20T08:05:53.025Z,22.10
2019-05-20T08:08:21.710Z,22.00
2019-05-20T08:10:50.636Z,22.00
2019-05-20T08:13:19.200Z,22.10
2019-05-20T08:15:47.836Z,22.00
2019-05-20T08:18:19.996Z,22.10
2019-05-20T08:21:06.056Z,22.10
2019-05-20T08:23:34.658Z,22.20
2019-05-20T08:26:03.294Z,22.20
2019-05-20T08:28:31.878Z,22.10
2019-05-20T08:31:00.453Z,22.10
2019-05-20T08:33:29.024Z,22.20
2019-05-20T08:35:57.941Z,22.30
2019-05-20T08:38:26.573Z,22.20
2019-05-20T08:40:55.172Z,22.20
2019-05-20T08:43:23.745Z,22.10
2019-05-20T08:45:52.313Z,22.10
2019-05-20T08:48:20.873Z,22.00
2019-05-20T08:50:49.439Z,22.20
2019-05-20T08:53:18.030Z,22.40
2019-05-20T08:55:46.673Z,22.30
2019-05-20T08:58:15.511Z,22.30
2019-05-20T09:00:44.113Z,22.20
2019-05-20T09:03:12.692Z,22.30
2019-05-20T09:05:41.260Z,22.40
2019-05-20T09:08:09.831Z,22.30
2019-05-20T09:10:39.556Z,22.40
2019-05-20T09:13:08.473Z,22.40
2019-05-20T09:15:37.037Z,22.40
2019-05-20T09:18:05.602Z,22.30
2019-05-20T09:20:34.480Z,22.30
2019-05-20T09:23:03.095Z,22.40
2019-05-20T09:25:32.510Z,22.40
2019-05-20T09:28:01.369Z,22.40
2019-05-20T09:30:30.032Z,22.30
2019-05-20T09:32:58.702Z,22.30
2019-05-20T09:35:27.334Z,22.40
2019-05-20T09:37:55.916Z,22.20
2019-05-20T09:40:41.826Z,22.10
2019-05-20T09:43:10.388Z,22.10
2019-05-20T09:45:39.384Z,22.10
2019-05-20T09:48:07.928Z,22.20
2019-05-20T09:50:36.500Z,22.30
2019-05-20T09:53:07.045Z,22.40
2019-05-20T09:55:35.705Z,22.30
2019-05-20T09:58:04.570Z,22.30
2019-05-20T10:00:33.148Z,22.30
2019-05-20T10:03:01.896Z,22.30
2019-05-20T10:05:30.613Z,22.30
2019-05-20T10:07:59.244Z,22.40
2019-05-20T10:10:27.827Z,22.40
2019-05-20T10:12:56.451Z,22.20
2019-05-20T10:15:25.031Z,22.10
2019-05-20T10:17:53.598Z,22.00
2019-05-20T10:20:22.233Z,21.80
2019-05-20T10:22:50.845Z,21.80
2019-05-20T10:25:19.463Z,21.70
2019-05-20T10:27:48.080Z,21.70
2019-05-20T10:30:16.728Z,21.70
2019-05-20T10:32:45.300Z,21.70
2019-05-20T10:35:13.949Z,21.70
2019-05-20T10:37:42.618Z,21.70
2019-05-20T10:40:11.203Z,21.80
2019-05-20T10:42:39.786Z,21.80
2019-05-20T10:45:08.368Z,21.80
2019-05-20T10:47:36.950Z,22.00
2019-05-20T10:50:24.829Z,22.00
2019-05-20T10:52:53.409Z,22.00
2019-05-20T10:55:22.000Z,22.00
2019-05-20T10:57:50.549Z,22.10
2019-05-20T11:00:19.991Z,22.10
2019-05-20T11:02:48.696Z,22.20
2019-05-20T11:05:17.466Z,22.20
2019-05-20T11:07:46.483Z,22.20
2019-05-20T11:10:15.722Z,22.30
2019-05-20T11:12:44.290Z,22.90
2019-05-20T11:15:13.000Z,23.20
2019-05-20T11:17:41.594Z,22.80
2019-05-20T11:20:10.381Z,22.70
2019-05-20T11:22:39.010Z,22.80
2019-05-20T11:25:07.598Z,22.70
2019-05-20T11:27:36.198Z,22.60
2019-05-20T11:30:05.388Z,22.60
2019-05-20T11:32:34.114Z,22.50
2019-05-20T11:35:02.730Z,22.30
2019-05-20T11:37:31.293Z,22.40
2019-05-20T11:39:59.885Z,22.30
2019-05-20T11:42:28.449Z,22.30
2019-05-20T11:44:57.019Z,22.50
2019-05-20T11:47:25.577Z,22.50
2019-05-20T11:49:54.158Z,22.60
2019-05-20T11:52:22.749Z,22.60
2019-05-20T11:54:51.337Z,23.00
2019-05-20T11:57:20.122Z,23.20
2019-05-20T11:59:48.714Z,23.20
2019-05-20T12:02:17.570Z,23.30
2019-05-20T12:04:46.339Z,23.40
2019-05-20T12:07:15.097Z,23.10
2019-05-20T12:09:49.536Z,23.10
2019-05-20T12:12:33.307Z,23.00
2019-05-20T12:15:03.299Z,22.90
2019-05-20T12:17:32.576Z,22.80
2019-05-20T12:20:01.278Z,23.00
2019-05-20T12:22:29.982Z,23.10
2019-05-20T12:24:58.582Z,23.30
2019-05-20T12:27:27.134Z,23.50
2019-05-20T12:29:55.704Z,23.70
2019-05-20T12:32:24.288Z,23.50
2019-05-20T12:34:52.895Z,23.20
2019-05-20T12:37:21.869Z,23.00
2019-05-20T12:40:05.912Z,22.90
2019-05-20T12:42:20.736Z,22.90
2019-05-20T12:44:49.280Z,23.00
2019-05-20T12:47:17.869Z,23.10
2019-05-20T12:49:46.463Z,23.10
2019-05-20T12:52:15.056Z,23.10
2019-05-20T12:54:43.633Z,23.10
2019-05-20T12:57:12.212Z,23.10
2019-05-20T12:59:40.793Z,23.10
2019-05-20T13:02:09.358Z,23.10
2019-05-20T13:04:38.300Z,23.10
2019-05-20T13:07:06.917Z,23.20
2019-05-20T13:09:35.484Z,23.20
2019-05-20T13:12:04.089Z,23.30
2019-05-20T13:14:32.965Z,23.50
2019-05-20T13:17:01.565Z,23.50
2019-05-20T13:19:30.140Z,23.30
2019-05-20T13:23:40.901Z,22.40
2019-05-20T13:26:09.474Z,19.60
2019-05-20T13:28:38.083Z,18.30
2019-05-20T13:31:06.785Z,17.40
2019-05-20T13:33:35.394Z,16.60
2019-05-20T13:36:03.963Z,16.30
2019-05-20T13:38:51.860Z,16.20
2019-05-20T13:41:20.536Z,16.10
2019-05-20T13:43:49.128Z,16.00
2019-05-20T13:46:17.713Z,15.90
2019-05-20T13:48:46.617Z,15.80
2019-05-20T13:51:15.189Z,15.70
2019-05-20T13:53:43.760Z,15.80
2019-05-20T13:56:12.377Z,15.90
2019-05-20T13:58:41.046Z,15.80
2019-05-20T14:01:09.616Z,15.90
2019-05-20T14:03:38.205Z,15.80
2019-05-20T14:06:06.794Z,15.90
2019-05-20T14:08:35.404Z,15.80
2019-05-20T14:11:05.033Z,15.70
2019-05-20T14:13:33.933Z,15.60
2019-05-20T14:16:02.515Z,15.70
2019-05-20T14:18:31.097Z,15.50
2019-05-20T14:20:59.690Z,15.50
2019-05-20T14:23:28.275Z,15.50
2019-05-20T14:25:57.180Z,15.40
2019-05-20T14:28:26.419Z,15.30
2019-05-20T14:30:54.996Z,15.20
2019-05-20T14:33:23.563Z,15.30
2019-05-20T14:35:52.154Z,15.50
2019-05-20T14:38:20.792Z,15.50
2019-05-20T14:40:49.436Z,15.30
2019-05-20T14:43:18.022Z,15.20
2019-05-20T14:45:46.713Z,14.90
2019-05-20T14:48:15.323Z,14.90
2019-05-20T14:50:43.944Z,14.90
2019-05-20T14:53:12.622Z,15.10
2019-05-20T14:55:42.827Z,15.00
2019-05-20T14:58:11.609Z,15.00
2019-05-20T15:00:40.199Z,15.10
2019-05-20T15:03:08.790Z,15.10
2019-05-20T15:05:37.508Z,15.10
2019-05-20T15:08:06.107Z,15.00
2019-05-20T15:10:34.701Z,15.10
2019-05-20T15:13:03.287Z,15.20
2019-05-20T15:15:32.201Z,15.20
2019-05-20T15:18:00.804Z,15.10
2019-05-20T15:20:29.440Z,14.90
2019-05-20T15:22:58.277Z,15.00
2019-05-20T15:25:27.347Z,15.00
2019-05-20T15:27:55.922Z,15.00
2019-05-20T15:30:24.510Z,15.10
2019-05-20T15:32:54.900Z,15.20
2019-05-20T15:35:23.387Z,15.20
2019-05-20T15:37:51.971Z,15.30
2019-05-20T15:40:39.873Z,15.30
2019-05-20T15:43:08.721Z,15.20
2019-05-20T15:45:37.291Z,15.30
2019-05-20T15:48:25.185Z,15.40
2019-05-20T15:50:53.794Z,15.40
2019-05-20T15:53:22.523Z,15.40
2019-05-20T15:55:51.122Z,15.20
2019-05-20T15:58:23.590Z,15.20
2019-05-20T16:00:50.103Z,15.20
2019-05-20T16:03:18.679Z,15.20
2019-05-20T16:05:47.626Z,15.20
2019-05-20T16:08:16.216Z,15.10
2019-05-20T16:10:44.823Z,15.10
2019-05-20T16:13:13.408Z,15.00
2019-05-20T16:15:42.394Z,15.10
2019-05-20T16:18:10.962Z,15.20
2019-05-20T16:20:39.562Z,15.30
2019-05-20T16:23:08.111Z,15.30
2019-05-20T16:25:36.712Z,15.40
2019-05-20T16:28:05.532Z,15.30
2019-05-20T16:30:34.115Z,15.10
2019-05-20T16:33:02.694Z,15.00
2019-05-20T16:35:50.603Z,14.90
2019-05-20T16:38:19.568Z,14.80
2019-05-20T16:40:48.136Z,14.80
2019-05-20T16:43:17.763Z,14.80
2019-05-20T16:45:46.385Z,14.60
2019-05-20T16:48:15.008Z,14.50
2019-05-20T16:50:43.652Z,14.30
2019-05-20T16:53:12.264Z,14.60
2019-05-20T16:55:40.898Z,14.40
2019-05-20T16:58:09.525Z,14.40
2019-05-20T17:00:38.102Z,14.30
2019-05-20T17:03:12.716Z,14.20
2019-05-20T17:05:41.303Z,14.00
2019-05-20T17:08:09.903Z,13.90
2019-05-20T17:10:38.490Z,13.80
2019-05-20T17:13:07.068Z,13.90
2019-05-20T17:15:35.739Z,13.90
2019-05-20T17:18:04.362Z,13.80
2019-05-20T17:20:32.940Z,13.70
2019-05-20T17:23:01.640Z,13.80
2019-05-20T17:25:30.364Z,13.70
2019-05-20T17:28:18.292Z,13.70
2019-05-20T17:30:59.081Z,13.60
2019-05-20T17:33:27.888Z,13.60
2019-05-20T17:35:56.509Z,13.70
2019-05-20T17:38:25.092Z,13.70
2019-05-20T17:40:54.248Z,13.70
2019-05-20T17:43:22.804Z,13.70
2019-05-20T17:45:51.376Z,13.70
2019-05-20T17:48:20.019Z,13.80
2019-05-20T17:50:48.646Z,13.70
2019-05-20T17:53:17.315Z,13.70
2019-05-20T17:55:46.034Z,13.50
2019-05-20T17:58:14.668Z,13.40
2019-05-20T18:00:43.445Z,13.30
2019-05-20T18:03:12.041Z,13.40
2019-05-20T18:05:40.998Z,13.40
2019-05-20T18:08:09.603Z,13.40
2019-05-20T18:10:38.291Z,13.30
2019-05-20T18:13:07.100Z,13.30
2019-05-20T18:15:35.680Z,13.30
2019-05-20T18:18:23.585Z,13.20
2019-05-20T18:20:52.331Z,13.20
2019-05-20T18:23:20.981Z,13.10
2019-05-20T18:25:49.645Z,13.10
2019-05-20T18:28:18.232Z,12.90
2019-05-20T18:30:46.890Z,12.90
2019-05-20T18:33:15.638Z,12.90
2019-05-20T18:35:44.229Z,12.90
2019-05-20T18:38:13.377Z,12.80
2019-05-20T18:40:42.541Z,12.80
2019-05-20T18:43:11.253Z,12.70
2019-05-20T18:45:39.918Z,12.60
2019-05-20T18:48:08.523Z,12.60
2019-05-20T18:50:37.124Z,12.50
2019-05-20T18:53:06.190Z,12.60
2019-05-20T18:55:35.098Z,12.60
2019-05-20T18:58:03.746Z,12.60
2019-05-20T19:00:32.360Z,12.70
2019-05-20T19:03:00.975Z,12.70
2019-05-20T19:05:29.624Z,12.70
2019-05-20T19:08:17.514Z,12.70
2019-05-20T19:10:46.109Z,12.80
2019-05-20T19:13:14.672Z,12.70
2019-05-20T19:15:43.251Z,12.50
2019-05-20T19:20:53.769Z,12.40
2019-05-20T19:23:41.681Z,12.40
2019-05-20T19:26:23.727Z,12.30
2019-05-20T19:28:40.581Z,12.40
2019-05-20T19:31:09.181Z,12.40
2019-05-20T19:33:37.785Z,12.30
2019-05-20T19:36:06.365Z,12.30
2019-05-20T19:38:35.147Z,12.30
2019-05-20T19:41:03.829Z,12.30
2019-05-20T19:43:32.717Z,12.30
2019-05-20T19:46:01.317Z,12.30
2019-05-20T19:48:29.901Z,12.40
2019-05-20T19:50:58.497Z,12.40
2019-05-20T19:53:27.076Z,12.40
2019-05-20T19:55:56.073Z,12.40
2019-05-20T19:58:24.967Z,12.40
2019-05-20T20:00:56.549Z,12.40
2019-05-20T20:03:23.853Z,12.40
2019-05-20T20:05:52.414Z,12.30
2019-05-20T20:08:21.066Z,12.30
2019-05-20T20:10:49.640Z,12.30
2019-05-20T20:13:18.228Z,12.30
2019-05-20T20:15:46.795Z,12.30
2019-05-20T20:18:15.378Z,12.20
2019-05-20T20:20:43.951Z,12.20
2019-05-20T20:23:12.520Z,12.20
2019-05-20T20:25:41.108Z,12.30
2019-05-20T20:28:09.993Z,12.30
2019-05-20T20:30:38.609Z,12.20
2019-05-20T20:33:07.212Z,12.30
2019-05-20T20:35:38.121Z,12.30
2019-05-20T20:38:25.452Z,12.30
2019-05-20T20:40:54.080Z,12.30
2019-05-20T20:43:22.689Z,12.30
2019-05-20T20:45:51.259Z,12.20
2019-05-20T20:48:19.928Z,12.10
2019-05-20T20:50:48.489Z,12.20
2019-05-20T20:53:17.075Z,12.20
2019-05-20T20:55:45.740Z,12.10
2019-05-20T20:58:14.307Z,12.00
2019-05-20T21:00:42.971Z,12.00
2019-05-20T21:03:11.540Z,12.00
2019-05-20T21:05:40.121Z,12.00
2019-05-20T21:08:08.717Z,12.00
2019-05-20T21:10:37.293Z,12.00
2019-05-20T21:13:05.889Z,11.90
2019-05-20T21:15:34.473Z,11.90
2019-05-20T21:18:03.079Z,12.00
2019-05-20T21:20:31.728Z,12.00
2019-05-20T21:23:00.477Z,12.00
2019-05-20T21:25:29.071Z,12.00
2019-05-20T21:27:57.675Z,11.90
2019-05-20T21:30:26.237Z,12.00
2019-05-20T21:33:08.374Z,12.00
2019-05-20T21:35:25.169Z,12.10
2019-05-20T21:37:53.772Z,12.10
2019-05-20T21:40:22.360Z,12.20
2019-05-20T21:42:50.945Z,12.10
2019-05-20T21:45:19.622Z,12.00
2019-05-20T21:47:48.207Z,12.00
2019-05-20T21:50:16.790Z,11.90
2019-05-20T21:52:45.377Z,11.90
2019-05-20T21:55:14.252Z,11.90
2019-05-20T21:57:42.857Z,11.90
2019-05-20T22:00:13.798Z,11.90
2019-05-20T22:02:42.684Z,11.90
2019-05-20T22:05:11.259Z,11.90
2019-05-20T22:07:39.833Z,11.90
2019-05-20T22:10:08.406Z,11.90
2019-05-20T22:12:36.968Z,11.90
2019-05-20T22:15:05.681Z,11.90
2019-05-20T22:17:34.280Z,11.90
2019-05-20T22:20:02.924Z,12.00
2019-05-20T22:23:09.905Z,11.90
2019-05-20T22:25:38.494Z,11.90
2019-05-20T22:28:07.086Z,11.90
2019-05-20T22:30:35.672Z,11.90
2019-05-20T22:33:04.233Z,11.80
2019-05-20T22:35:32.824Z,11.90
2019-05-20T22:38:04.884Z,11.90
2019-05-20T22:40:33.476Z,11.90
2019-05-20T22:43:02.060Z,11.90
2019-05-20T22:45:30.650Z,11.90
2019-05-20T22:47:59.535Z,12.00
2019-05-20T22:50:28.133Z,11.90
2019-05-20T22:52:56.696Z,11.90
2019-05-20T22:55:25.275Z,11.90
2019-05-20T22:57:53.933Z,11.90
2019-05-20T23:00:22.516Z,11.90
2019-05-20T23:02:51.101Z,12.00
2019-05-20T23:05:20.447Z,11.90
2019-05-20T23:07:49.079Z,11.90
2019-05-20T23:10:36.977Z,11.90
2019-05-20T23:13:05.568Z,11.90
2019-05-20T23:15:34.212Z,11.90
2019-05-20T23:18:02.897Z,12.00
2019-05-20T23:20:31.491Z,11.90
2019-05-20T23:23:00.092Z,12.00
2019-05-20T23:25:28.701Z,12.00
2019-05-20T23:27:57.309Z,12.00
2019-05-20T23:30:25.894Z,12.00
2019-05-20T23:32:54.491Z,12.00
2019-05-20T23:35:23.068Z,12.10
2019-05-20T23:37:51.636Z,12.00
2019-05-20T23:40:20.316Z,12.10
2019-05-20T23:42:48.898Z,12.00
2019-05-20T23:45:17.517Z,12.10
2019-05-20T23:47:46.149Z,12.10
2019-05-20T23:50:14.773Z,12.10
2019-05-20T23:52:43.424Z,12.20
2019-05-20T23:55:12.023Z,12.10
2019-05-20T23:57:40.601Z,12.20
